createdAt,value
2023-02-19T00:01:18.913Z,45.50
2023-02-19T00:06:23.946Z,46.21
2023-02-19T00:11:29.142Z,46.08
2023-02-19T00:16:37.258Z,47.18
2023-02-19T00:21:40.714Z,47.49
2023-02-19T00:26:45.098Z,46.98
2023-02-19T00:31:50.063Z,47.32
2023-02-19T00:36:53.589Z,46.39
2023-02-19T00:41:56.988Z,48.97
2023-02-19T00:47:01.806Z,49.79
2023-02-19T00:52:05.517Z,52.63
2023-02-19T00:57:08.952Z,50.60
2023-02-19T01:02:14.645Z,49.63
2023-02-19T01:07:19.743Z,49.78
2023-02-19T01:12:24.256Z,49.51
2023-02-19T01:17:29.196Z,49.68
2023-02-19T01:22:32.621Z,48.23
2023-02-19T01:27:36.058Z,48.17
2023-02-19T01:32:40.989Z,51.51
2023-02-19T01:37:44.418Z,52.00
2023-02-19T01:42:48.112Z,52.24
2023-02-19T01:48:04.716Z,52.75
2023-02-19T01:53:09.432Z,49.65
2023-02-19T01:58:13.038Z,51.10
2023-02-19T02:03:18.005Z,50.18
2023-02-19T02:08:39.558Z,50.69
2023-02-19T02:13:43.313Z,50.47
2023-02-19T02:18:57.144Z,50.30
2023-02-19T02:24:12.800Z,49.50
2023-02-19T02:29:26.615Z,50.38
2023-02-19T02:34:35.981Z,49.03
2023-02-19T02:39:40.312Z,49.69
2023-02-19T02:45:05.458Z,50.68
2023-02-19T02:50:13.658Z,50.03
2023-02-19T02:55:17.541Z,51.25
2023-02-19T03:00:21.120Z,51.34
2023-02-19T03:05:55.915Z,52.56
2023-02-19T03:11:23.296Z,53.42
2023-02-19T03:16:46.473Z,53.04
2023-02-19T03:21:58.067Z,56.43
2023-02-19T03:27:03.488Z,54.03
2023-02-19T03:32:16.358Z,52.61
2023-02-19T03:37:25.185Z,53.37
2023-02-19T03:42:38.212Z,51.83
2023-02-19T03:47:49.808Z,48.90
2023-02-19T03:53:01.471Z,51.39
2023-02-19T03:58:08.685Z,48.76
2023-02-19T04:03:17.348Z,47.78
2023-02-19T04:08:23.768Z,48.18
2023-02-19T04:13:36.048Z,48.16
2023-02-19T04:18:42.274Z,47.83
2023-02-19T04:23:47.317Z,49.09
2023-02-19T04:28:50.855Z,47.72
2023-02-19T04:33:54.391Z,48.59
2023-02-19T04:38:59.416Z,49.85
2023-02-19T04:44:02.894Z,49.49
2023-02-19T04:49:06.504Z,49.28
2023-02-19T04:54:11.274Z,47.93
2023-02-19T04:59:14.812Z,48.72
2023-02-19T05:04:18.614Z,49.84
2023-02-19T05:09:23.554Z,50.14
2023-02-19T05:14:26.988Z,50.07
2023-02-19T05:19:30.590Z,50.33
2023-02-19T05:24:35.380Z,48.22
2023-02-19T05:29:38.799Z,47.70
2023-02-19T05:34:42.265Z,49.01
2023-02-19T05:39:47.182Z,47.59
2023-02-19T05:44:50.583Z,48.70
2023-02-19T05:49:54.153Z,46.94
2023-02-19T05:54:59.138Z,47.68
2023-02-19T06:00:02.554Z,46.63
2023-02-19T06:05:15.799Z,48.12
2023-02-19T06:10:20.800Z,48.63
2023-02-19T06:15:24.340Z,47.94
2023-02-19T06:20:27.840Z,50.09
2023-02-19T06:25:32.663Z,48.26
2023-02-19T06:30:36.139Z,47.34
2023-02-19T06:35:39.723Z,46.86
2023-02-19T06:40:44.568Z,46.45
2023-02-19T06:45:47.961Z,47.42
2023-02-19T06:50:51.368Z,46.85
2023-02-19T06:56:00.235Z,46.19
2023-02-19T07:01:03.782Z,45.83
2023-02-19T07:06:07.933Z,47.80
2023-02-19T07:11:12.957Z,48.29
2023-02-19T07:16:17.933Z,47.63
2023-02-19T07:21:21.427Z,47.46
2023-02-19T07:26:26.412Z,46.33
2023-02-19T07:31:30.089Z,46.57
2023-02-19T07:36:33.664Z,48.28
2023-02-19T07:41:38.803Z,48.21
2023-02-19T07:46:43.410Z,47.56
2023-02-19T07:51:46.996Z,46.11
2023-02-19T07:56:51.857Z,46.16
2023-02-19T08:02:12.996Z,46.36
2023-02-19T08:07:16.464Z,46.00
2023-02-19T08:12:39.952Z,45.62
2023-02-19T08:17:43.767Z,45.86
2023-02-19T08:22:47.888Z,45.04
2023-02-19T08:27:52.773Z,45.63
2023-02-19T08:33:01.859Z,45.62
2023-02-19T08:38:06.978Z,46.85
2023-02-19T08:43:13.418Z,45.97
2023-02-19T08:48:16.841Z,46.56
2023-02-19T08:53:20.313Z,45.30
2023-02-19T08:58:26.268Z,46.67
2023-02-19T09:03:29.775Z,45.16
2023-02-19T09:08:33.312Z,44.53
2023-02-19T09:13:38.195Z,44.58
2023-02-19T09:18:41.669Z,45.05
2023-02-19T09:23:45.178Z,45.15
2023-02-19T09:28:50.096Z,44.44
2023-02-19T09:33:53.559Z,46.55
2023-02-19T09:38:57.053Z,45.25
2023-02-19T09:44:04.044Z,46.27
2023-02-19T09:49:12.173Z,44.39
2023-02-19T09:54:21.873Z,44.00
2023-02-19T09:59:30.197Z,43.11
2023-02-19T10:04:33.693Z,44.56
2023-02-19T10:09:37.534Z,45.82
2023-02-19T10:14:45.543Z,44.12
2023-02-19T10:19:49.124Z,44.82
2023-02-19T10:24:54.796Z,42.71
2023-02-19T10:30:01.337Z,43.55
2023-02-19T10:35:13.018Z,44.74
2023-02-19T10:40:18.609Z,40.90
2023-02-19T10:45:25.744Z,41.25
2023-02-19T10:50:32.166Z,39.78
2023-02-19T10:55:38.176Z,39.75
2023-02-19T11:00:43.338Z,39.93
2023-02-19T11:06:01.184Z,40.53
2023-02-19T11:11:04.849Z,38.46
2023-02-19T11:16:09.885Z,37.44
2023-02-19T11:21:28.272Z,40.34
2023-02-19T11:26:35.114Z,40.37
2023-02-19T11:31:40.009Z,38.10
2023-02-19T11:36:43.815Z,36.52
2023-02-19T11:42:07.448Z,37.25
2023-02-19T11:47:37.660Z,36.16
2023-02-19T11:52:44.204Z,35.66
2023-02-19T11:57:49.235Z,36.93
2023-02-19T12:03:05.690Z,35.40
2023-02-19T12:08:37.638Z,36.01
2023-02-19T12:13:57.319Z,36.89
2023-02-19T12:19:25.693Z,34.16
2023-02-19T12:24:41.352Z,36.52
2023-02-19T12:29:56.563Z,35.04
2023-02-19T12:35:38.191Z,35.49
2023-02-19T12:40:50.641Z,34.73
2023-02-19T12:45:56.505Z,34.01
2023-02-19T12:51:05.584Z,33.62
2023-02-19T12:56:14.467Z,33.47
2023-02-19T13:01:22.231Z,33.64
2023-02-19T13:06:36.191Z,35.17
2023-02-19T13:11:41.340Z,34.87
2023-02-19T13:16:49.922Z,32.17
2023-02-19T13:22:17.648Z,32.57
2023-02-19T13:27:36.371Z,32.27
2023-02-19T13:32:49.742Z,34.11
2023-02-19T13:37:56.020Z,32.01
2023-02-19T13:43:01.216Z,33.38
2023-02-19T13:48:16.576Z,31.57
2023-02-19T13:53:57.497Z,30.40
2023-02-19T13:59:19.430Z,30.49
2023-02-19T14:04:24.854Z,32.24
2023-02-19T14:09:47.516Z,32.21
2023-02-19T14:14:51.627Z,30.11
2023-02-19T14:20:00.209Z,28.87
2023-02-19T14:25:09.050Z,31.08
2023-02-19T14:30:13.989Z,31.66
2023-02-19T14:35:19.668Z,31.49
2023-02-19T14:40:28.168Z,31.79
2023-02-19T14:45:35.263Z,31.75
2023-02-19T14:50:38.732Z,33.27
2023-02-19T14:55:44.263Z,32.03
2023-02-19T15:00:47.729Z,31.42
2023-02-19T15:05:55.741Z,32.04
2023-02-19T15:11:02.439Z,32.05
2023-02-19T15:16:06.898Z,33.15
2023-02-19T15:21:22.257Z,32.31
2023-02-19T15:26:32.995Z,31.55
2023-02-19T15:31:36.624Z,32.60
2023-02-19T15:36:41.885Z,33.57
2023-02-19T15:41:52.540Z,32.54
2023-02-19T15:46:56.645Z,32.07
2023-02-19T15:52:02.711Z,32.58
2023-02-19T15:57:10.460Z,33.11
2023-02-19T16:02:14.778Z,33.25
2023-02-19T16:07:28.424Z,34.19
2023-02-19T16:12:33.240Z,33.69
2023-02-19T16:17:36.843Z,33.52
2023-02-19T16:22:42.583Z,33.97
2023-02-19T16:27:47.419Z,34.01
2023-02-19T16:33:37.656Z,33.62
2023-02-19T16:38:41.088Z,34.58
2023-02-19T16:43:45.976Z,34.50
2023-02-19T16:48:49.836Z,35.18
2023-02-19T16:53:53.548Z,34.49
2023-02-19T16:58:58.614Z,34.83
2023-02-19T17:04:06.360Z,35.06
2023-02-19T17:09:10.266Z,34.85
2023-02-19T17:14:15.112Z,35.37
2023-02-19T17:19:21.119Z,35.30
2023-02-19T17:24:24.741Z,36.09
2023-02-19T17:29:33.707Z,36.86
2023-02-19T17:34:37.240Z,37.27
2023-02-19T17:39:41.209Z,38.48
2023-02-19T17:44:47.348Z,38.32
2023-02-19T17:49:50.786Z,38.51
2023-02-19T17:54:54.265Z,37.87
2023-02-19T17:59:59.237Z,38.46
2023-02-19T18:05:02.647Z,38.11
2023-02-19T18:10:07.601Z,38.59
2023-02-19T18:15:17.535Z,39.13
2023-02-19T18:20:22.883Z,39.28
2023-02-19T18:25:26.605Z,41.35
2023-02-19T18:30:31.601Z,41.26
2023-02-19T18:35:35.033Z,40.64
2023-02-19T18:40:38.476Z,41.15
2023-02-19T18:45:45.342Z,41.25
2023-02-19T18:50:48.919Z,42.00
2023-02-19T18:55:52.396Z,40.52
2023-02-19T19:00:58.760Z,40.83
2023-02-19T19:06:02.403Z,40.07
2023-02-19T19:11:06.236Z,39.47
2023-02-19T19:16:11.059Z,39.01
2023-02-19T19:21:15.795Z,38.91
2023-02-19T19:26:19.368Z,41.54
2023-02-19T19:31:25.507Z,40.98
2023-02-19T19:36:29.173Z,41.51
2023-02-19T19:41:32.982Z,41.01
2023-02-19T19:46:43.982Z,40.56
2023-02-19T19:51:47.927Z,40.78
2023-02-19T19:56:51.456Z,40.21
2023-02-19T20:01:57.821Z,41.58
2023-02-19T20:07:01.765Z,41.51
2023-02-19T20:12:06.496Z,40.68
2023-02-19T20:17:11.783Z,40.83
2023-02-19T20:22:15.242Z,42.48
2023-02-19T20:27:19.075Z,42.46
2023-02-19T20:32:24.092Z,42.31
2023-02-19T20:37:27.785Z,43.35
2023-02-19T20:42:31.474Z,42.67
2023-02-19T20:47:37.564Z,41.85
2023-02-19T20:52:40.962Z,41.25
2023-02-19T20:57:44.515Z,41.08
2023-02-19T21:02:49.471Z,42.47
2023-02-19T21:07:52.917Z,41.49
2023-02-19T21:12:57.241Z,40.90
2023-02-19T21:18:03.293Z,41.58
2023-02-19T21:23:06.775Z,41.09
2023-02-19T21:28:10.799Z,42.05
2023-02-19T21:33:16.563Z,41.61
2023-02-19T21:38:20.023Z,41.25
2023-02-19T21:43:23.461Z,42.56
2023-02-19T21:48:28.217Z,43.15
2023-02-19T21:53:32.104Z,42.73
2023-02-19T21:58:35.580Z,43.65
2023-02-19T22:03:40.416Z,44.09
2023-02-19T22:08:44.243Z,42.96
2023-02-19T22:13:48.023Z,43.59
2023-02-19T22:18:54.097Z,43.96
2023-02-19T22:23:58.277Z,43.00
2023-02-19T22:29:05.830Z,42.00
2023-02-19T22:34:10.857Z,43.08
2023-02-19T22:39:18.276Z,44.22
2023-02-19T22:44:21.726Z,44.18
2023-02-19T22:49:26.560Z,43.74
2023-02-19T22:54:29.992Z,44.34
2023-02-19T22:59:33.524Z,43.57
2023-02-19T23:04:38.398Z,44.47
2023-02-19T23:09:41.882Z,43.91
2023-02-19T23:14:47.158Z,45.75
2023-02-19T23:19:52.002Z,44.38
2023-02-19T23:24:55.726Z,44.20
2023-02-19T23:29:59.258Z,45.52
2023-02-19T23:35:04.127Z,45.63
2023-02-19T23:40:08.765Z,45.40
2023-02-19T23:45:12.423Z,46.43
2023-02-19T23:50:17.714Z,45.95
2023-02-19T23:55:21.149Z,45.85
